createdAt,value
2018-12-20T00:02:22.085Z,13.30
2018-12-20T00:04:52.374Z,11.65
2018-12-20T00:07:22.523Z,12.43
2018-12-20T00:09:53.386Z,11.43
2018-12-20T00:12:23.473Z,10.98
2018-12-20T00:14:53.878Z,10.15
2018-12-20T00:17:29.518Z,11.10
2018-12-20T00:19:59.733Z,11.08
2018-12-20T00:22:30.074Z,10.03
2018-12-20T00:25:00.561Z,9.63
2018-12-20T00:27:30.861Z,10.18
2018-12-20T00:30:01.204Z,9.55
2018-12-20T00:32:31.263Z,9.30
2018-12-20T00:35:01.494Z,9.33
2018-12-20T00:37:31.870Z,9.48
2018-12-20T00:40:06.398Z,10.32
2018-12-20T00:42:34.880Z,10.08
2018-12-20T00:45:05.500Z,9.75
2018-12-20T00:47:35.840Z,8.85
2018-12-20T00:50:06.602Z,8.35
2018-12-20T00:52:36.885Z,8.40
2018-12-20T00:55:07.434Z,8.60
2018-12-20T00:57:37.751Z,7.85
2018-12-20T01:00:09.540Z,8.20
2018-12-20T01:02:39.586Z,8.78
2018-12-20T01:05:09.623Z,7.78
2018-12-20T01:07:40.155Z,7.55
2018-12-20T01:10:10.274Z,7.30
2018-12-20T01:12:40.397Z,7.22
2018-12-20T01:15:12.445Z,7.05
2018-12-20T01:17:42.753Z,7.37
2018-12-20T01:20:13.088Z,7.30
2018-12-20T01:22:43.636Z,7.40
2018-12-20T01:25:13.961Z,9.73
2018-12-20T01:27:44.062Z,10.40
2018-12-20T01:30:14.610Z,10.75
2018-12-20T01:32:45.894Z,10.65
2018-12-20T01:35:16.248Z,9.68
2018-12-20T01:37:46.545Z,9.13
2018-12-20T01:40:16.655Z,10.72
2018-12-20T01:42:47.080Z,10.45
2018-12-20T01:45:17.699Z,11.78
2018-12-20T01:47:48.002Z,8.95
2018-12-20T01:50:18.158Z,7.90
2018-12-20T01:52:48.334Z,6.78
2018-12-20T01:55:18.841Z,6.90
2018-12-20T01:57:49.148Z,4.03
2018-12-20T02:00:20.012Z,3.80
2018-12-20T02:02:50.452Z,4.00
2018-12-20T02:05:20.849Z,4.87
2018-12-20T02:07:51.059Z,4.20
2018-12-20T02:10:21.181Z,4.15
2018-12-20T02:12:51.686Z,3.70
2018-12-20T02:15:22.213Z,3.95
2018-12-20T02:17:52.814Z,3.67
2018-12-20T02:20:24.071Z,3.35
2018-12-20T02:22:54.379Z,3.75
2018-12-20T02:25:24.678Z,3.40
2018-12-20T02:27:54.953Z,4.70
2018-12-20T02:30:25.336Z,6.60
2018-12-20T02:32:55.675Z,9.53
2018-12-20T02:35:26.010Z,8.95
2018-12-20T02:37:56.167Z,9.75
2018-12-20T02:40:26.652Z,9.83
2018-12-20T02:42:56.974Z,9.40
2018-12-20T02:45:27.314Z,9.48
2018-12-20T02:47:58.025Z,10.10
2018-12-20T02:50:28.554Z,9.90
2018-12-20T02:52:59.314Z,10.70
2018-12-20T02:55:29.609Z,10.40
2018-12-20T02:58:00.181Z,9.10
2018-12-20T03:00:30.828Z,9.58
2018-12-20T03:03:01.163Z,9.63
2018-12-20T03:05:31.495Z,8.88
2018-12-20T03:08:03.387Z,9.75
2018-12-20T03:10:33.693Z,10.23
2018-12-20T03:13:04.125Z,9.70
2018-12-20T03:15:34.674Z,10.63
2018-12-20T03:18:05.366Z,11.88
2018-12-20T03:20:35.727Z,11.28
2018-12-20T03:23:06.043Z,11.12
2018-12-20T03:25:36.392Z,10.88
2018-12-20T03:28:06.965Z,12.33
2018-12-20T03:30:37.416Z,11.57
2018-12-20T03:33:10.476Z,11.33
2018-12-20T03:35:40.099Z,10.93
2018-12-20T03:38:10.182Z,10.00
2018-12-20T03:40:40.574Z,10.25
2018-12-20T03:43:11.007Z,9.35
2018-12-20T03:45:41.827Z,8.75
2018-12-20T03:48:12.345Z,8.15
2018-12-20T03:50:42.863Z,8.08
2018-12-20T03:53:12.995Z,7.47
2018-12-20T03:55:43.295Z,7.35
2018-12-20T03:58:13.339Z,8.98
2018-12-20T04:00:43.657Z,9.35
2018-12-20T04:03:14.120Z,8.25
2018-12-20T04:05:44.493Z,10.38
2018-12-20T04:08:14.586Z,9.13
2018-12-20T04:10:44.983Z,8.93
2018-12-20T04:13:15.240Z,9.18
2018-12-20T04:15:45.887Z,8.85
2018-12-20T04:18:16.148Z,7.40
2018-12-20T04:20:46.558Z,6.30
2018-12-20T04:23:16.731Z,7.60
2018-12-20T04:25:47.179Z,7.70
2018-12-20T04:28:17.660Z,6.47
2018-12-20T04:30:48.179Z,6.17
2018-12-20T04:33:18.431Z,6.42
2018-12-20T04:35:48.486Z,6.85
2018-12-20T04:38:18.816Z,6.60
2018-12-20T04:40:49.309Z,7.08
2018-12-20T04:43:19.552Z,6.80
2018-12-20T04:45:49.857Z,6.05
2018-12-20T04:48:20.200Z,7.25
2018-12-20T04:50:50.680Z,8.25
2018-12-20T04:53:21.054Z,9.40
2018-12-20T04:55:51.594Z,9.15
2018-12-20T04:58:22.264Z,10.48
2018-12-20T05:00:52.956Z,11.53
2018-12-20T05:03:23.456Z,8.68
2018-12-20T05:05:53.823Z,9.25
2018-12-20T05:08:24.279Z,9.80
2018-12-20T05:10:54.863Z,9.10
2018-12-20T05:13:25.138Z,7.92
2018-12-20T05:15:57.351Z,8.13
2018-12-20T05:18:35.604Z,7.95
2018-12-20T05:21:06.190Z,8.28
2018-12-20T05:26:37.249Z,8.30
2018-12-20T05:29:07.387Z,8.33
2018-12-20T05:31:37.736Z,7.65
2018-12-20T05:34:08.309Z,7.40
2018-12-20T05:36:39.043Z,7.60
2018-12-20T05:39:09.465Z,7.03
2018-12-20T05:41:39.848Z,7.50
2018-12-20T05:44:10.000Z,8.05
2018-12-20T05:46:40.478Z,8.33
2018-12-20T05:49:11.058Z,7.37
2018-12-20T05:51:42.023Z,7.22
2018-12-20T05:54:12.289Z,7.40
2018-12-20T05:56:42.662Z,7.22
2018-12-20T05:59:13.341Z,7.92
2018-12-20T06:01:43.503Z,7.55
2018-12-20T06:04:13.810Z,7.60
2018-12-20T06:06:43.874Z,7.90
2018-12-20T06:09:14.002Z,8.08
2018-12-20T06:11:44.678Z,8.33
2018-12-20T06:14:14.919Z,7.45
2018-12-20T06:16:45.275Z,8.05
2018-12-20T06:19:15.564Z,7.90
2018-12-20T06:21:45.877Z,8.05
2018-12-20T06:24:16.065Z,8.13
2018-12-20T06:26:46.323Z,8.63
2018-12-20T06:29:16.659Z,8.28
2018-12-20T06:31:47.018Z,7.90
2018-12-20T06:34:17.057Z,7.15
2018-12-20T06:36:47.207Z,6.22
2018-12-20T06:39:17.354Z,6.17
2018-12-20T06:41:51.028Z,5.95
2018-12-20T06:44:21.072Z,5.85
2018-12-20T06:46:51.133Z,6.47
2018-12-20T06:49:21.167Z,5.78
2018-12-20T06:51:51.863Z,4.55
2018-12-20T06:54:21.901Z,5.28
2018-12-20T06:56:51.947Z,5.42
2018-12-20T06:59:21.985Z,5.17
2018-12-20T07:01:52.027Z,4.85
2018-12-20T07:04:22.342Z,4.45
2018-12-20T07:06:52.427Z,4.25
2018-12-20T07:09:22.490Z,3.90
2018-12-20T07:11:52.567Z,3.90
2018-12-20T07:14:22.603Z,3.05
2018-12-20T07:16:52.680Z,3.40
2018-12-20T07:19:22.782Z,4.80
2018-12-20T07:21:53.048Z,3.40
2018-12-20T07:24:23.096Z,3.33
2018-12-20T07:26:53.159Z,2.98
2018-12-20T07:29:23.227Z,3.00
2018-12-20T07:31:53.282Z,2.70
2018-12-20T07:34:23.323Z,3.40
2018-12-20T07:36:53.401Z,2.90
2018-12-20T07:39:23.442Z,2.83
2018-12-20T07:41:53.542Z,2.70
2018-12-20T07:44:23.574Z,2.70
2018-12-20T07:46:53.779Z,2.67
2018-12-20T07:49:23.914Z,2.30
2018-12-20T07:51:54.016Z,2.50
2018-12-20T07:54:24.059Z,2.30
2018-12-20T07:56:54.183Z,2.10
2018-12-20T07:59:24.214Z,2.22
2018-12-20T08:01:54.319Z,2.47
2018-12-20T08:04:24.342Z,2.72
2018-12-20T08:06:54.724Z,2.60
2018-12-20T08:09:24.879Z,2.33
2018-12-20T08:11:55.018Z,1.90
2018-12-20T08:14:26.242Z,2.12
2018-12-20T08:16:56.449Z,2.22
2018-12-20T08:19:26.499Z,1.80
2018-12-20T08:21:57.012Z,1.60
2018-12-20T08:24:27.146Z,1.95
2018-12-20T08:26:57.252Z,2.33
2018-12-20T08:29:27.423Z,2.08
2018-12-20T08:31:57.494Z,2.17
2018-12-20T08:34:27.520Z,2.22
2018-12-20T08:36:57.595Z,2.08
2018-12-20T08:39:27.639Z,2.70
2018-12-20T08:41:57.729Z,2.40
2018-12-20T08:44:27.759Z,2.52
2018-12-20T08:46:59.131Z,2.20
2018-12-20T08:49:29.154Z,2.00
2018-12-20T08:51:59.238Z,2.00
2018-12-20T08:54:29.295Z,2.60
2018-12-20T08:56:59.610Z,2.50
2018-12-20T08:59:29.639Z,2.33
2018-12-20T09:01:59.744Z,2.65
2018-12-20T09:04:29.876Z,3.47
2018-12-20T09:06:59.953Z,3.12
2018-12-20T09:09:30.099Z,3.27
2018-12-20T09:12:00.292Z,3.27
2018-12-20T09:14:30.338Z,3.80
2018-12-20T09:17:03.130Z,3.35
2018-12-20T09:19:32.491Z,3.47
2018-12-20T09:22:02.575Z,3.37
2018-12-20T09:24:32.606Z,3.50
2018-12-20T09:27:02.682Z,3.50
2018-12-20T09:29:32.716Z,3.50
2018-12-20T09:32:02.843Z,3.17
2018-12-20T09:34:33.157Z,3.70
2018-12-20T09:37:03.326Z,3.72
2018-12-20T09:39:33.479Z,3.12
2018-12-20T09:42:03.574Z,3.52
2018-12-20T09:44:33.616Z,3.20
2018-12-20T09:47:11.877Z,3.37
2018-12-20T09:49:41.213Z,3.30
2018-12-20T09:52:11.270Z,3.55
2018-12-20T09:54:41.326Z,3.52
2018-12-20T09:57:11.383Z,3.42
2018-12-20T09:59:41.450Z,3.50
2018-12-20T10:02:11.689Z,2.92
2018-12-20T10:04:42.234Z,3.10
2018-12-20T10:07:12.393Z,2.60
2018-12-20T10:09:42.451Z,2.90
2018-12-20T10:12:12.683Z,2.92
2018-12-20T10:14:42.732Z,2.00
2018-12-20T10:17:19.835Z,2.58
2018-12-20T10:19:44.929Z,2.40
2018-12-20T10:22:14.990Z,1.90
2018-12-20T10:24:45.030Z,2.20
2018-12-20T10:27:15.110Z,1.95
2018-12-20T10:29:45.164Z,2.40
2018-12-20T10:32:15.330Z,1.92
2018-12-20T10:34:45.363Z,2.30
2018-12-20T10:37:15.432Z,1.98
2018-12-20T10:39:45.477Z,1.98
2018-12-20T10:42:16.243Z,1.80
2018-12-20T10:44:46.283Z,1.95
2018-12-20T10:47:28.886Z,1.90
2018-12-20T10:49:54.020Z,1.50
2018-12-20T10:52:24.179Z,1.60
2018-12-20T10:54:54.212Z,1.37
2018-12-20T10:57:24.276Z,2.00
2018-12-20T10:59:54.396Z,1.80
2018-12-20T11:02:29.877Z,1.40
2018-12-20T11:05:02.008Z,1.30
2018-12-20T11:07:37.611Z,1.20
2018-12-20T11:10:14.219Z,1.17
2018-12-20T11:12:48.246Z,1.70
2018-12-20T11:15:19.885Z,1.50
2018-12-20T11:17:49.950Z,1.75
2018-12-20T11:20:20.108Z,1.40
2018-12-20T11:22:50.163Z,1.50
2018-12-20T11:25:20.359Z,1.60
2018-12-20T11:27:50.410Z,1.47
2018-12-20T11:30:20.449Z,1.87
2018-12-20T11:32:50.807Z,1.40
2018-12-20T11:35:20.835Z,1.42
2018-12-20T11:37:50.895Z,1.30
2018-12-20T11:40:21.530Z,1.50
2018-12-20T11:42:51.591Z,1.62
2018-12-20T11:45:21.628Z,1.10
2018-12-20T11:47:51.687Z,1.40
2018-12-20T11:50:21.727Z,1.22
2018-12-20T11:52:51.790Z,1.40
2018-12-20T11:55:21.823Z,1.27
2018-12-20T11:57:51.872Z,1.37
2018-12-20T12:00:24.707Z,1.50
2018-12-20T12:02:58.875Z,1.20
2018-12-20T12:05:28.988Z,1.32
2018-12-20T12:07:59.043Z,1.72
2018-12-20T12:10:30.510Z,1.55
2018-12-20T12:13:00.566Z,1.65
2018-12-20T12:15:32.399Z,1.60
2018-12-20T12:18:02.654Z,1.40
2018-12-20T12:20:32.738Z,2.30
2018-12-20T12:23:02.898Z,2.30
2018-12-20T12:25:32.931Z,1.30
2018-12-20T12:28:03.055Z,1.47
2018-12-20T12:30:33.173Z,1.72
2018-12-20T12:33:03.239Z,2.80
2018-12-20T12:35:33.272Z,2.90
2018-12-20T12:38:03.335Z,1.67
2018-12-20T12:40:33.380Z,1.47
2018-12-20T12:43:03.464Z,1.10
2018-12-20T12:45:38.828Z,1.60
2018-12-20T12:48:09.079Z,1.50
2018-12-20T12:50:39.307Z,1.50
2018-12-20T12:53:09.362Z,2.00
2018-12-20T12:55:41.146Z,1.95
2018-12-20T12:58:11.259Z,1.90
2018-12-20T13:00:42.587Z,1.90
2018-12-20T13:03:12.643Z,2.00
2018-12-20T13:05:42.898Z,5.03
2018-12-20T13:08:13.001Z,2.45
2018-12-20T13:10:43.102Z,2.22
2018-12-20T13:13:14.238Z,2.25
2018-12-20T13:15:44.579Z,1.95
2018-12-20T13:18:14.637Z,1.52
2018-12-20T13:20:44.686Z,1.82
2018-12-20T13:23:15.226Z,1.80
2018-12-20T13:25:45.827Z,1.62
2018-12-20T13:28:16.170Z,4.60
2018-12-20T13:30:46.450Z,4.05
2018-12-20T13:33:16.535Z,2.20
2018-12-20T13:35:46.868Z,2.40
2018-12-20T13:38:16.924Z,1.70
2018-12-20T13:40:46.959Z,2.55
2018-12-20T13:43:17.301Z,2.70
2018-12-20T13:45:47.343Z,2.70
2018-12-20T13:48:22.246Z,2.58
2018-12-20T13:50:49.464Z,2.47
2018-12-20T13:53:19.558Z,1.80
2018-12-20T13:55:49.594Z,1.67
2018-12-20T13:58:19.664Z,1.75
2018-12-20T14:00:49.703Z,1.40
2018-12-20T14:03:19.805Z,1.77
2018-12-20T14:05:50.810Z,1.60
2018-12-20T14:08:20.895Z,1.95
2018-12-20T14:10:50.961Z,2.00
2018-12-20T14:13:22.054Z,2.65
2018-12-20T14:15:52.099Z,2.27
2018-12-20T14:18:30.632Z,2.75
2018-12-20T14:20:54.228Z,1.80
2018-12-20T14:23:24.291Z,1.70
2018-12-20T14:25:54.350Z,1.50
2018-12-20T14:28:24.791Z,1.67
2018-12-20T14:30:54.906Z,1.67
2018-12-20T14:33:24.939Z,2.05
2018-12-20T14:35:54.990Z,1.25
2018-12-20T14:38:25.042Z,1.77
2018-12-20T14:40:55.115Z,1.67
2018-12-20T14:43:25.157Z,2.22
2018-12-20T14:45:55.226Z,1.60
2018-12-20T14:48:30.391Z,1.87
2018-12-20T14:51:00.546Z,2.30
2018-12-20T14:53:30.589Z,2.83
2018-12-20T14:56:00.662Z,2.33
2018-12-20T14:58:30.807Z,2.15
2018-12-20T15:01:00.877Z,2.30
2018-12-20T15:03:30.911Z,2.20
2018-12-20T15:06:01.001Z,1.95
2018-12-20T15:08:31.054Z,2.00
2018-12-20T15:11:01.129Z,2.70
2018-12-20T15:13:31.534Z,2.90
2018-12-20T15:16:01.591Z,2.90
2018-12-20T15:18:31.632Z,2.70
2018-12-20T15:21:01.700Z,2.20
2018-12-20T15:23:31.830Z,3.20
2018-12-20T15:26:01.895Z,2.27
2018-12-20T15:28:32.038Z,2.12
2018-12-20T15:31:02.111Z,2.05
2018-12-20T15:33:33.504Z,2.00
2018-12-20T15:36:04.262Z,2.15
2018-12-20T15:38:34.469Z,2.55
2018-12-20T15:41:05.363Z,2.27
2018-12-20T15:43:35.467Z,2.22
2018-12-20T15:46:05.818Z,6.28
2018-12-20T15:48:35.843Z,4.35
2018-12-20T15:51:05.902Z,4.67
2018-12-20T15:53:36.456Z,10.00
2018-12-20T15:56:06.672Z,6.72
2018-12-20T15:58:36.809Z,8.38
2018-12-20T16:01:07.876Z,4.65
2018-12-20T16:03:37.970Z,2.08
2018-12-20T16:06:08.191Z,2.80
2018-12-20T16:08:38.411Z,5.90
2018-12-20T16:11:08.570Z,1.50
2018-12-20T16:13:38.609Z,1.35
2018-12-20T16:16:09.432Z,1.17
2018-12-20T16:18:40.172Z,1.42
2018-12-20T16:21:10.295Z,0.93
2018-12-20T16:23:40.549Z,1.12
2018-12-20T16:26:10.626Z,1.30
2018-12-20T16:28:41.714Z,1.32
2018-12-20T16:31:11.871Z,1.20
2018-12-20T16:33:42.831Z,1.30
2018-12-20T16:36:14.487Z,1.65
2018-12-20T16:38:44.730Z,1.40
2018-12-20T16:41:19.008Z,1.85
2018-12-20T16:43:49.434Z,1.32
2018-12-20T16:46:19.602Z,1.50
2018-12-20T16:48:50.295Z,1.20
2018-12-20T16:51:20.658Z,1.90
2018-12-20T16:53:50.743Z,2.20
2018-12-20T16:56:21.872Z,2.95
2018-12-20T16:58:53.143Z,4.30
2018-12-20T17:01:23.588Z,4.78
2018-12-20T17:03:53.714Z,4.40
2018-12-20T17:06:24.395Z,6.40
2018-12-20T17:08:54.424Z,4.55
2018-12-20T17:11:24.487Z,3.50
2018-12-20T17:13:54.524Z,2.30
2018-12-20T17:16:24.881Z,2.77
2018-12-20T17:18:54.914Z,3.33
2018-12-20T17:21:25.143Z,2.12
2018-12-20T17:23:55.166Z,2.17
2018-12-20T17:26:25.227Z,2.65
2018-12-20T17:28:55.262Z,2.40
2018-12-20T17:31:25.515Z,1.55
2018-12-20T17:33:55.627Z,1.90
2018-12-20T17:36:25.779Z,2.15
2018-12-20T17:38:56.018Z,2.30
2018-12-20T17:41:26.267Z,2.50
2018-12-20T17:43:56.399Z,2.80
2018-12-20T17:46:26.452Z,5.45
2018-12-20T17:48:56.490Z,3.60
2018-12-20T17:51:26.551Z,2.90
2018-12-20T17:53:56.597Z,2.90
2018-12-20T17:56:26.647Z,4.12
2018-12-20T17:58:56.675Z,4.35
2018-12-20T18:01:27.235Z,3.52
2018-12-20T18:03:57.327Z,3.92
2018-12-20T18:06:27.386Z,3.67
2018-12-20T18:08:57.428Z,3.60
2018-12-20T18:11:27.482Z,3.22
2018-12-20T18:13:57.558Z,4.58
2018-12-20T18:16:27.620Z,3.40
2018-12-20T18:18:57.760Z,2.15
2018-12-20T18:21:28.064Z,5.97
2018-12-20T18:23:59.417Z,2.42
2018-12-20T18:26:32.300Z,1.70
2018-12-20T18:29:03.207Z,2.58
2018-12-20T18:31:34.874Z,2.00
2018-12-20T18:34:05.608Z,1.57
2018-12-20T18:36:36.778Z,1.67
2018-12-20T18:39:08.286Z,2.40
2018-12-20T18:41:39.514Z,2.83
2018-12-20T18:44:10.630Z,1.90
2018-12-20T18:46:40.894Z,3.00
2018-12-20T18:49:10.950Z,2.33
2018-12-20T18:51:41.095Z,3.62
2018-12-20T18:54:11.167Z,2.02
2018-12-20T18:56:41.328Z,5.62
2018-12-20T18:59:11.371Z,2.98
2018-12-20T19:01:41.427Z,6.45
2018-12-20T19:04:11.407Z,2.30
2018-12-20T19:06:41.467Z,1.82
2018-12-20T19:09:11.516Z,1.85
2018-12-20T19:11:41.575Z,2.00
2018-12-20T19:14:13.295Z,1.85
2018-12-20T19:16:43.357Z,1.87
2018-12-20T19:19:13.431Z,2.08
2018-12-20T19:21:43.510Z,1.70
2018-12-20T19:24:13.575Z,1.80
2018-12-20T19:26:43.647Z,1.77
2018-12-20T19:29:14.703Z,1.87
2018-12-20T19:31:44.938Z,1.80
2018-12-20T19:34:15.120Z,1.62
2018-12-20T19:36:46.840Z,1.67
2018-12-20T19:39:16.883Z,1.70
2018-12-20T19:41:46.938Z,1.82
2018-12-20T19:44:17.116Z,2.05
2018-12-20T19:46:48.171Z,2.10
2018-12-20T19:49:19.471Z,1.75
2018-12-20T19:51:50.951Z,2.10
2018-12-20T19:54:22.314Z,2.27
2018-12-20T19:56:53.707Z,2.52
2018-12-20T19:59:25.911Z,1.87
2018-12-20T20:02:04.622Z,1.80
2018-12-20T20:04:32.315Z,2.00
2018-12-20T20:07:03.599Z,1.75
2018-12-20T20:09:37.407Z,2.72
2018-12-20T20:12:08.839Z,1.40
2018-12-20T20:14:40.119Z,1.20
2018-12-20T20:17:11.332Z,1.40
2018-12-20T20:19:42.631Z,1.10
2018-12-20T20:22:14.152Z,1.57
2018-12-20T20:24:45.447Z,1.40
2018-12-20T20:27:16.422Z,1.10
2018-12-20T20:29:46.776Z,1.10
2018-12-20T20:32:17.063Z,1.30
2018-12-20T20:34:47.103Z,1.40
2018-12-20T20:37:18.471Z,1.52
2018-12-20T20:39:48.511Z,1.30
2018-12-20T20:42:18.577Z,1.07
2018-12-20T20:44:48.606Z,1.47
2018-12-20T20:47:18.663Z,0.85
2018-12-20T20:49:48.690Z,0.98
2018-12-20T20:52:18.767Z,1.57
2018-12-20T20:54:48.814Z,1.30
2018-12-20T20:57:19.067Z,1.47
2018-12-20T20:59:51.035Z,1.25
2018-12-20T21:02:21.167Z,1.17
2018-12-20T21:04:51.199Z,1.10
2018-12-20T21:07:21.264Z,1.30
2018-12-20T21:09:51.557Z,1.35
2018-12-20T21:12:22.957Z,1.30
2018-12-20T21:14:53.508Z,1.00
2018-12-20T21:17:23.689Z,1.22
2018-12-20T21:19:53.704Z,1.32
2018-12-20T21:22:23.760Z,1.27
2018-12-20T21:24:53.819Z,1.00
2018-12-20T21:27:24.003Z,1.25
2018-12-20T21:29:54.106Z,1.20
2018-12-20T21:32:24.210Z,1.35
2018-12-20T21:34:54.260Z,1.82
2018-12-20T21:37:24.318Z,1.72
2018-12-20T21:39:54.367Z,1.65
2018-12-20T21:42:24.496Z,1.10
2018-12-20T21:44:54.518Z,1.40
2018-12-20T21:47:24.570Z,1.07
2018-12-20T21:49:54.654Z,1.20
2018-12-20T21:52:24.702Z,1.20
2018-12-20T21:54:54.843Z,1.00
2018-12-20T21:57:24.923Z,0.93
2018-12-20T22:00:01.237Z,1.17
2018-12-20T22:02:27.019Z,0.90
2018-12-20T22:04:57.050Z,1.20
2018-12-20T22:07:27.104Z,0.90
2018-12-20T22:09:57.150Z,1.22
2018-12-20T22:12:27.217Z,1.15
2018-12-20T22:14:57.254Z,1.80
2018-12-20T22:17:27.407Z,1.00
2018-12-20T22:19:58.741Z,1.05
2018-12-20T22:22:29.304Z,0.80
2018-12-20T22:24:59.336Z,1.17
2018-12-20T22:27:29.383Z,0.85
2018-12-20T22:29:59.433Z,0.90
2018-12-20T22:32:29.502Z,1.00
2018-12-20T22:34:59.531Z,0.88
2018-12-20T22:37:29.589Z,1.30
2018-12-20T22:39:59.627Z,0.70
2018-12-20T22:42:29.690Z,1.05
2018-12-20T22:45:01.385Z,1.00
2018-12-20T22:47:31.699Z,1.30
2018-12-20T22:50:01.747Z,1.00
2018-12-20T22:52:31.816Z,0.90
2018-12-20T22:55:01.940Z,1.00
2018-12-20T22:57:32.110Z,0.80
2018-12-20T23:00:02.148Z,0.90
2018-12-20T23:02:32.291Z,1.00
2018-12-20T23:05:02.317Z,1.00
2018-12-20T23:07:32.387Z,1.42
2018-12-20T23:10:02.607Z,1.20
2018-12-20T23:12:32.659Z,0.88
2018-12-20T23:15:04.871Z,1.00
2018-12-20T23:17:34.939Z,1.00
2018-12-20T23:20:06.232Z,1.72
2018-12-20T23:22:36.998Z,0.65
2018-12-20T23:25:07.111Z,1.10
2018-12-20T23:27:37.215Z,1.30
2018-12-20T23:30:07.418Z,1.15
2018-12-20T23:32:37.484Z,1.20
2018-12-20T23:35:07.674Z,1.00
2018-12-20T23:37:37.743Z,2.83
2018-12-20T23:40:07.859Z,1.30
2018-12-20T23:42:37.915Z,1.50
2018-12-20T23:45:07.983Z,0.90
2018-12-20T23:47:41.751Z,0.80
2018-12-20T23:50:12.042Z,0.90
2018-12-20T23:52:42.382Z,1.17
2018-12-20T23:55:13.915Z,0.70
2018-12-20T23:57:44.063Z,0.90
